createdAt,value
2022-10-23T00:00:31.618Z,99.99
2022-10-23T00:01:31.557Z,99.99
2022-10-23T00:02:31.658Z,99.99
2022-10-23T00:03:31.521Z,99.99
2022-10-23T00:04:31.533Z,99.99
2022-10-23T00:05:31.502Z,99.99
2022-10-23T00:06:31.509Z,99.99
2022-10-23T00:07:31.461Z,99.99
2022-10-23T00:08:31.449Z,99.99
2022-10-23T00:09:31.445Z,99.99
2022-10-23T00:10:31.477Z,99.99
2022-10-23T00:11:31.408Z,99.99
2022-10-23T00:12:31.434Z,99.99
2022-10-23T00:13:31.386Z,99.99
2022-10-23T00:14:31.366Z,99.99
2022-10-23T00:15:31.337Z,99.99
2022-10-23T00:16:31.340Z,99.99
2022-10-23T00:17:31.325Z,99.99
2022-10-23T00:18:31.345Z,99.99
2022-10-23T00:19:31.305Z,99.99
2022-10-23T00:20:31.311Z,99.99
2022-10-23T00:21:31.275Z,99.99
2022-10-23T00:22:31.268Z,99.99
2022-10-23T00:23:31.256Z,99.99
2022-10-23T00:24:31.217Z,99.99
2022-10-23T00:25:31.246Z,99.99
2022-10-23T00:26:31.204Z,99.99
2022-10-23T00:27:31.168Z,99.99
2022-10-23T00:28:31.165Z,99.99
2022-10-23T00:29:31.149Z,99.99
2022-10-23T00:30:31.148Z,99.99
2022-10-23T00:31:31.113Z,99.99
2022-10-23T00:33:31.093Z,99.99
2022-10-23T00:34:31.130Z,99.99
2022-10-23T00:35:31.139Z,99.99
2022-10-23T00:36:31.048Z,99.99
2022-10-23T00:37:31.035Z,99.99
2022-10-23T00:38:31.020Z,99.99
2022-10-23T00:39:30.991Z,99.99
2022-10-23T00:40:30.971Z,99.99
2022-10-23T00:41:31.157Z,99.99
2022-10-23T00:42:30.984Z,99.99
2022-10-23T00:43:30.969Z,99.99
2022-10-23T00:44:30.938Z,99.99
2022-10-23T00:45:30.903Z,99.99
2022-10-23T00:46:30.920Z,99.99
2022-10-23T00:47:30.915Z,99.99
2022-10-23T00:48:30.883Z,99.99
2022-10-23T00:49:32.536Z,99.99
2022-10-23T00:50:30.891Z,99.99
2022-10-23T00:51:30.835Z,99.99
2022-10-23T00:52:30.815Z,99.99
2022-10-23T00:53:30.842Z,99.99
2022-10-23T00:54:30.809Z,99.99
2022-10-23T00:55:30.772Z,99.99
2022-10-23T00:56:30.788Z,99.99
2022-10-23T00:57:30.776Z,99.99
2022-10-23T00:58:30.736Z,99.99
2022-10-23T00:59:30.725Z,99.99
2022-10-23T01:00:30.759Z,99.99
2022-10-23T01:01:30.803Z,99.99
2022-10-23T01:02:30.728Z,99.99
2022-10-23T01:03:30.678Z,99.99
2022-10-23T01:04:30.642Z,99.99
2022-10-23T01:05:30.611Z,99.99
2022-10-23T01:06:30.623Z,99.99
2022-10-23T01:07:30.585Z,99.99
2022-10-23T01:08:30.574Z,99.99
2022-10-23T01:09:30.553Z,99.99
2022-10-23T01:10:30.542Z,99.99
2022-10-23T01:11:30.523Z,99.99
2022-10-23T01:12:30.519Z,99.99
2022-10-23T01:13:30.529Z,99.99
2022-10-23T01:14:30.482Z,99.99
2022-10-23T01:15:30.483Z,99.99
2022-10-23T01:16:30.468Z,99.99
2022-10-23T01:17:30.473Z,99.99
2022-10-23T01:18:30.477Z,99.99
2022-10-23T01:19:30.469Z,99.99
2022-10-23T01:20:30.443Z,99.99
2022-10-23T01:21:30.401Z,99.99
2022-10-23T01:22:30.357Z,99.99
2022-10-23T01:23:30.383Z,99.99
2022-10-23T01:24:30.373Z,99.99
2022-10-23T01:25:37.858Z,99.99
2022-10-23T01:26:30.342Z,99.99
2022-10-23T01:27:30.299Z,99.99
2022-10-23T01:28:30.311Z,99.99
2022-10-23T01:29:30.287Z,99.99
2022-10-23T01:30:30.424Z,99.99
2022-10-23T01:31:30.266Z,99.99
2022-10-23T01:32:30.235Z,99.99
2022-10-23T01:33:30.202Z,99.99
2022-10-23T01:34:30.198Z,99.99
2022-10-23T01:35:30.212Z,99.99
2022-10-23T01:36:30.151Z,99.99
2022-10-23T01:37:30.165Z,99.99
2022-10-23T01:38:30.132Z,99.99
2022-10-23T01:39:30.136Z,99.99
2022-10-23T01:40:30.102Z,99.99
2022-10-23T01:41:30.115Z,99.99
2022-10-23T01:42:30.079Z,99.99
2022-10-23T01:43:30.080Z,99.99
2022-10-23T01:44:30.045Z,99.99
2022-10-23T01:45:30.045Z,99.99
2022-10-23T01:46:30.010Z,99.99
2022-10-23T01:47:30.010Z,99.99
2022-10-23T01:48:31.605Z,99.99
2022-10-23T01:49:29.981Z,99.99
2022-10-23T01:50:29.967Z,99.99
2022-10-23T01:51:29.985Z,99.99
2022-10-23T01:52:29.919Z,99.99
2022-10-23T01:53:29.962Z,99.99
2022-10-23T01:54:29.891Z,99.99
2022-10-23T01:55:29.976Z,99.99
2022-10-23T01:56:29.865Z,99.99
2022-10-23T01:57:29.850Z,99.99
2022-10-23T01:58:29.857Z,99.99
2022-10-23T01:59:29.833Z,99.99
2022-10-23T02:00:29.872Z,99.99
2022-10-23T02:01:29.928Z,99.99
2022-10-23T02:02:29.832Z,99.99
2022-10-23T02:03:29.780Z,99.99
2022-10-23T02:04:29.783Z,99.99
2022-10-23T02:05:29.761Z,99.99
2022-10-23T02:06:29.764Z,99.99
2022-10-23T02:07:29.701Z,99.99
2022-10-23T02:08:29.700Z,99.99
2022-10-23T02:09:29.715Z,99.99
2022-10-23T02:10:29.656Z,99.99
2022-10-23T02:11:29.646Z,99.99
2022-10-23T02:12:29.668Z,99.99
2022-10-23T02:13:29.610Z,99.99
2022-10-23T02:14:29.615Z,99.99
2022-10-23T02:15:29.634Z,99.99
2022-10-23T02:16:29.582Z,99.99
2022-10-23T02:17:29.551Z,99.99
2022-10-23T02:18:29.588Z,99.99
2022-10-23T02:19:29.576Z,99.99
2022-10-23T02:20:29.505Z,99.99
2022-10-23T02:21:29.558Z,99.99
2022-10-23T02:22:29.515Z,99.99
2022-10-23T02:23:29.511Z,99.99
2022-10-23T02:24:29.454Z,99.99
2022-10-23T02:25:29.476Z,99.99
2022-10-23T02:26:29.435Z,99.99
2022-10-23T02:27:29.490Z,99.99
2022-10-23T02:28:29.423Z,99.99
2022-10-23T02:29:29.424Z,99.99
2022-10-23T02:30:29.406Z,99.99
2022-10-23T02:31:29.402Z,99.99
2022-10-23T02:32:29.393Z,99.99
2022-10-23T02:33:29.358Z,99.99
2022-10-23T02:34:29.325Z,99.99
2022-10-23T02:35:29.308Z,99.99
2022-10-23T02:36:29.285Z,99.99
2022-10-23T02:37:29.323Z,99.99
2022-10-23T02:38:29.290Z,99.99
2022-10-23T02:39:29.249Z,99.99
2022-10-23T02:40:29.245Z,99.99
2022-10-23T02:41:29.230Z,99.99
2022-10-23T02:42:29.209Z,99.99
2022-10-23T02:43:29.184Z,99.99
2022-10-23T02:44:29.188Z,99.99
2022-10-23T02:45:29.213Z,99.99
2022-10-23T02:46:29.135Z,99.99
2022-10-23T02:47:29.121Z,99.99
2022-10-23T02:48:29.113Z,99.99
2022-10-23T02:49:29.118Z,99.99
2022-10-23T02:50:29.081Z,99.99
2022-10-23T02:51:29.074Z,99.99
2022-10-23T02:52:29.128Z,99.99
2022-10-23T02:53:29.060Z,99.99
2022-10-23T02:54:29.052Z,99.99
2022-10-23T02:55:29.026Z,99.99
2022-10-23T02:56:29.009Z,99.99
2022-10-23T02:57:28.991Z,99.99
2022-10-23T02:58:28.979Z,99.99
2022-10-23T02:59:28.956Z,99.99
2022-10-23T03:00:28.929Z,99.99
2022-10-23T03:01:29.059Z,99.99
2022-10-23T03:02:29.052Z,99.99
2022-10-23T03:03:28.924Z,99.99
2022-10-23T03:04:28.872Z,99.99
2022-10-23T03:05:28.903Z,99.99
2022-10-23T03:06:28.846Z,99.99
2022-10-23T03:07:28.874Z,99.99
2022-10-23T03:08:28.828Z,99.99
2022-10-23T03:09:28.812Z,99.99
2022-10-23T03:10:28.772Z,99.99
2022-10-23T03:11:28.791Z,99.99
2022-10-23T03:12:28.805Z,99.99
2022-10-23T03:13:28.768Z,99.99
2022-10-23T03:14:28.762Z,99.99
2022-10-23T03:15:28.731Z,99.99
2022-10-23T03:16:28.718Z,99.99
2022-10-23T03:17:28.725Z,99.99
2022-10-23T03:18:28.664Z,99.99
2022-10-23T03:19:28.696Z,99.99
2022-10-23T03:20:28.660Z,99.99
2022-10-23T03:21:28.678Z,99.99
2022-10-23T03:22:28.614Z,99.99
2022-10-23T03:23:28.603Z,99.99
2022-10-23T03:24:28.592Z,99.99
2022-10-23T03:25:28.579Z,99.99
2022-10-23T03:26:28.589Z,99.99
2022-10-23T03:28:28.523Z,99.99
2022-10-23T03:29:28.602Z,99.99
2022-10-23T03:30:28.498Z,99.99
2022-10-23T03:31:28.509Z,99.99
2022-10-23T03:32:28.507Z,99.99
2022-10-23T03:33:28.454Z,99.99
2022-10-23T03:34:28.444Z,99.99
2022-10-23T03:35:28.461Z,99.99
2022-10-23T03:36:28.449Z,99.99
2022-10-23T03:37:28.403Z,99.99
2022-10-23T03:38:28.406Z,99.99
2022-10-23T03:39:28.373Z,99.99
2022-10-23T03:40:28.397Z,99.99
2022-10-23T03:41:28.350Z,99.99
2022-10-23T03:42:28.339Z,99.99
2022-10-23T03:43:28.321Z,99.99
2022-10-23T03:44:28.291Z,99.99
2022-10-23T03:45:28.286Z,99.99
2022-10-23T03:46:28.252Z,99.99
2022-10-23T03:47:28.263Z,99.99
2022-10-23T03:48:28.245Z,99.99
2022-10-23T03:49:28.245Z,99.99
2022-10-23T03:50:28.222Z,99.99
2022-10-23T03:51:28.203Z,99.99
2022-10-23T03:52:28.206Z,99.99
2022-10-23T03:53:28.198Z,99.99
2022-10-23T03:54:28.157Z,99.99
2022-10-23T03:55:28.162Z,99.99
2022-10-23T03:56:28.147Z,99.99
2022-10-23T03:57:28.104Z,99.99
2022-10-23T03:58:28.086Z,99.99
2022-10-23T03:59:28.101Z,99.99
2022-10-23T04:00:28.116Z,99.99
2022-10-23T04:01:28.144Z,99.99
2022-10-23T04:02:28.174Z,99.99
2022-10-23T04:03:28.011Z,99.99
2022-10-23T04:04:28.009Z,99.99
2022-10-23T04:05:28.001Z,99.99
2022-10-23T04:06:28.013Z,99.99
2022-10-23T04:07:27.970Z,99.99
2022-10-23T04:08:27.926Z,99.99
2022-10-23T04:09:27.949Z,99.99
2022-10-23T04:10:27.928Z,99.99
2022-10-23T04:11:27.905Z,99.99
2022-10-23T04:12:27.928Z,99.99
2022-10-23T04:13:27.889Z,99.99
2022-10-23T04:14:27.919Z,99.99
2022-10-23T04:15:27.857Z,99.99
2022-10-23T04:16:27.834Z,99.99
2022-10-23T04:18:27.835Z,99.99
2022-10-23T04:19:27.818Z,99.99
2022-10-23T04:20:27.752Z,99.99
2022-10-23T04:21:27.779Z,99.99
2022-10-23T04:22:28.608Z,99.99
2022-10-23T04:23:27.761Z,99.99
2022-10-23T04:24:27.709Z,99.99
2022-10-23T04:25:27.725Z,99.99
2022-10-23T04:26:27.743Z,99.99
2022-10-23T04:27:27.687Z,99.99
2022-10-23T04:28:27.644Z,99.99
2022-10-23T04:29:27.683Z,99.99
2022-10-23T04:30:27.651Z,99.99
2022-10-23T04:31:27.612Z,99.99
2022-10-23T04:32:27.628Z,99.99
2022-10-23T04:33:27.581Z,99.99
2022-10-23T04:34:27.554Z,99.99
2022-10-23T04:35:27.588Z,99.99
2022-10-23T04:36:27.556Z,99.99
2022-10-23T04:37:27.551Z,99.99
2022-10-23T04:38:27.509Z,99.99
2022-10-23T04:39:27.503Z,99.99
2022-10-23T04:40:27.495Z,99.99
2022-10-23T04:41:27.478Z,99.99
2022-10-23T04:43:27.444Z,99.99
2022-10-23T04:44:27.476Z,99.99
2022-10-23T04:45:27.414Z,99.99
2022-10-23T04:46:27.384Z,99.99
2022-10-23T04:47:27.366Z,99.99
2022-10-23T04:48:29.211Z,99.99
2022-10-23T04:49:27.360Z,99.99
2022-10-23T04:50:27.351Z,99.99
2022-10-23T04:51:27.319Z,99.99
2022-10-23T04:52:27.314Z,99.99
2022-10-23T04:53:27.309Z,99.99
2022-10-23T04:54:27.312Z,99.99
2022-10-23T04:55:27.288Z,99.99
2022-10-23T04:56:27.256Z,99.99
2022-10-23T04:57:27.235Z,99.99
2022-10-23T04:58:27.205Z,99.99
2022-10-23T04:59:27.250Z,99.99
2022-10-23T05:00:27.339Z,99.99
2022-10-23T05:01:27.289Z,99.99
2022-10-23T05:02:27.164Z,99.99
2022-10-23T05:03:27.146Z,99.99
2022-10-23T05:04:27.149Z,99.99
2022-10-23T05:05:27.130Z,99.99
2022-10-23T05:06:27.122Z,99.99
2022-10-23T05:07:27.109Z,99.99
2022-10-23T05:08:27.090Z,99.99
2022-10-23T05:09:27.105Z,99.99
2022-10-23T05:10:27.069Z,99.99
2022-10-23T05:11:27.036Z,99.99
2022-10-23T05:12:27.017Z,99.99
2022-10-23T05:13:27.015Z,99.99
2022-10-23T05:14:27.007Z,99.99
2022-10-23T05:15:26.986Z,99.99
2022-10-23T05:16:26.988Z,99.99
2022-10-23T05:17:26.965Z,99.99
2022-10-23T05:18:26.972Z,99.99
2022-10-23T05:19:26.923Z,99.99
2022-10-23T05:20:26.951Z,99.99
2022-10-23T05:21:26.912Z,99.99
2022-10-23T05:22:26.885Z,99.99
2022-10-23T05:23:26.878Z,99.99
2022-10-23T05:24:26.858Z,99.99
2022-10-23T05:25:26.854Z,99.99
2022-10-23T05:26:26.835Z,99.99
2022-10-23T05:27:26.837Z,99.99
2022-10-23T05:28:26.802Z,99.99
2022-10-23T05:29:26.812Z,99.99
2022-10-23T05:30:26.762Z,99.99
2022-10-23T05:31:26.755Z,99.99
2022-10-23T05:32:26.753Z,99.99
2022-10-23T05:33:26.745Z,99.99
2022-10-23T05:34:26.723Z,99.99
2022-10-23T05:35:26.703Z,99.99
2022-10-23T05:36:26.689Z,99.99
2022-10-23T05:37:26.661Z,99.99
2022-10-23T05:38:26.684Z,99.99
2022-10-23T05:39:26.651Z,99.99
2022-10-23T05:40:26.670Z,99.99
2022-10-23T05:41:26.592Z,99.99
2022-10-23T05:42:26.623Z,99.99
2022-10-23T05:43:26.574Z,99.99
2022-10-23T05:44:26.592Z,99.99
2022-10-23T05:45:26.549Z,99.99
2022-10-23T05:46:26.557Z,99.99
2022-10-23T05:47:26.518Z,99.99
2022-10-23T05:48:34.989Z,99.99
2022-10-23T05:49:27.507Z,99.99
2022-10-23T05:50:26.487Z,99.99
2022-10-23T05:51:26.456Z,99.99
2022-10-23T05:52:26.456Z,99.99
2022-10-23T05:53:26.448Z,99.99
2022-10-23T05:54:26.439Z,99.99
2022-10-23T05:55:26.427Z,99.99
2022-10-23T05:56:26.399Z,99.99
2022-10-23T05:57:26.386Z,99.99
2022-10-23T05:58:26.378Z,99.99
2022-10-23T05:59:26.369Z,99.99
2022-10-23T06:00:26.343Z,99.99
2022-10-23T06:01:26.607Z,99.99
2022-10-23T06:02:26.398Z,99.99
2022-10-23T06:03:26.296Z,99.99
2022-10-23T06:04:26.282Z,99.99
2022-10-23T06:05:26.340Z,99.99
2022-10-23T06:06:26.250Z,99.99
2022-10-23T06:07:58.493Z,99.99
2022-10-23T06:09:53.220Z,99.99
2022-10-23T06:10:24.938Z,99.99
2022-10-23T06:15:51.518Z,99.99
2022-10-23T06:16:51.471Z,99.99
2022-10-23T06:17:51.459Z,99.99
2022-10-23T06:18:51.466Z,99.99
2022-10-23T06:19:51.437Z,99.99
2022-10-23T06:20:51.422Z,99.99
2022-10-23T06:21:51.431Z,99.99
2022-10-23T06:22:51.389Z,99.99
2022-10-23T06:23:51.378Z,99.99
2022-10-23T06:24:51.349Z,99.99
2022-10-23T06:25:51.345Z,99.99
2022-10-23T06:26:51.315Z,99.99
2022-10-23T06:27:51.311Z,99.99
2022-10-23T06:28:51.314Z,99.99
2022-10-23T06:29:51.302Z,99.99
2022-10-23T06:30:51.269Z,99.99
2022-10-23T06:31:51.262Z,99.99
2022-10-23T06:32:51.229Z,99.99
2022-10-23T06:33:51.229Z,99.99
2022-10-23T06:34:51.226Z,99.99
2022-10-23T06:35:51.211Z,99.99
2022-10-23T06:36:51.199Z,99.99
2022-10-23T06:37:51.161Z,99.99
2022-10-23T06:38:51.201Z,99.99
2022-10-23T06:39:51.135Z,99.99
2022-10-23T06:40:51.135Z,99.99
2022-10-23T06:41:51.125Z,99.99
2022-10-23T06:42:51.093Z,99.99
2022-10-23T06:43:51.085Z,99.99
2022-10-23T06:44:51.072Z,99.99
2022-10-23T06:45:51.092Z,99.99
2022-10-23T06:46:51.051Z,99.99
2022-10-23T06:47:51.044Z,99.99
2022-10-23T06:48:51.020Z,99.99
2022-10-23T06:49:51.000Z,99.99
2022-10-23T06:50:50.995Z,99.99
2022-10-23T06:51:50.968Z,99.99
2022-10-23T06:52:50.977Z,99.99
2022-10-23T06:53:50.939Z,99.99
2022-10-23T06:54:50.936Z,99.99
2022-10-23T06:55:53.069Z,99.99
2022-10-23T06:56:50.911Z,99.99
2022-10-23T06:57:50.905Z,99.99
2022-10-23T06:58:50.875Z,99.99
2022-10-23T06:59:50.843Z,99.99
2022-10-23T07:00:50.893Z,99.99
2022-10-23T07:01:51.000Z,99.99
2022-10-23T07:02:50.813Z,99.99
2022-10-23T07:03:50.808Z,99.99
2022-10-23T07:04:50.794Z,99.99
2022-10-23T07:05:50.777Z,99.99
2022-10-23T07:06:50.751Z,99.99
2022-10-23T07:07:50.743Z,99.99
2022-10-23T07:08:50.755Z,99.99
2022-10-23T07:09:50.701Z,99.99
2022-10-23T07:10:50.683Z,99.99
2022-10-23T07:11:50.673Z,99.99
2022-10-23T07:12:50.674Z,99.99
2022-10-23T07:13:50.649Z,99.99
2022-10-23T07:14:50.671Z,99.99
2022-10-23T07:15:50.635Z,99.99
2022-10-23T07:16:50.617Z,99.99
2022-10-23T07:17:50.599Z,99.99
2022-10-23T07:18:50.594Z,99.99
2022-10-23T07:19:50.590Z,99.99
2022-10-23T07:20:50.588Z,99.99
2022-10-23T07:21:50.552Z,99.99
2022-10-23T07:22:50.537Z,99.99
2022-10-23T07:23:50.509Z,99.99
2022-10-23T07:24:50.506Z,99.99
2022-10-23T07:25:50.486Z,99.99
2022-10-23T07:27:50.454Z,99.99
2022-10-23T07:28:50.442Z,99.99
2022-10-23T07:29:50.459Z,99.99
2022-10-23T07:30:50.434Z,99.99
2022-10-23T07:31:50.405Z,99.99
2022-10-23T07:32:50.417Z,99.99
2022-10-23T07:33:50.360Z,99.99
2022-10-23T07:34:50.362Z,99.99
2022-10-23T07:35:50.356Z,99.99
2022-10-23T07:36:50.339Z,99.99
2022-10-23T07:37:50.319Z,99.99
2022-10-23T07:38:50.317Z,99.99
2022-10-23T07:47:17.638Z,99.99
2022-10-23T07:48:15.207Z,99.99
2022-10-23T07:49:15.100Z,99.99
2022-10-23T07:50:15.097Z,99.99
2022-10-23T07:51:15.138Z,99.99
2022-10-23T07:52:15.069Z,99.99
2022-10-23T07:53:15.046Z,99.99
2022-10-23T07:54:15.053Z,99.99
2022-10-23T07:55:15.067Z,99.99
2022-10-23T07:56:15.054Z,99.99
2022-10-23T07:57:15.004Z,99.99
2022-10-23T07:58:14.992Z,99.99
2022-10-23T07:59:14.995Z,99.99
2022-10-23T08:00:15.101Z,99.99
2022-10-23T08:01:14.964Z,99.99
2022-10-23T08:02:14.996Z,99.99
2022-10-23T08:03:14.924Z,99.99
2022-10-23T08:04:14.948Z,99.99
2022-10-23T08:05:14.908Z,99.99
2022-10-23T08:06:14.874Z,99.99
2022-10-23T08:07:14.871Z,99.99
2022-10-23T08:08:14.862Z,99.99
2022-10-23T08:09:14.837Z,99.99
2022-10-23T08:10:14.884Z,99.99
2022-10-23T08:11:14.835Z,99.99
2022-10-23T08:12:14.809Z,99.99
2022-10-23T08:13:14.797Z,99.99
2022-10-23T08:14:14.785Z,99.99
2022-10-23T08:15:14.795Z,99.99
2022-10-23T08:16:14.749Z,99.99
2022-10-23T08:17:14.780Z,99.99
2022-10-23T08:18:14.744Z,99.99
2022-10-23T08:19:14.703Z,99.99
2022-10-23T08:20:14.709Z,99.99
2022-10-23T08:21:14.675Z,99.99
2022-10-23T08:22:14.650Z,99.99
2022-10-23T08:23:14.691Z,99.99
2022-10-23T08:24:14.711Z,99.99
2022-10-23T08:25:14.662Z,99.99
2022-10-23T08:26:14.625Z,99.80
2022-10-23T08:27:14.589Z,99.99
2022-10-23T08:28:14.620Z,99.99
2022-10-23T08:29:14.589Z,99.99
2022-10-23T08:30:14.558Z,99.99
2022-10-23T08:31:14.572Z,99.99
2022-10-23T08:32:14.520Z,99.99
2022-10-23T08:33:14.541Z,99.99
2022-10-23T08:34:14.513Z,99.99
2022-10-23T08:35:14.551Z,99.99
2022-10-23T08:36:14.505Z,99.60
2022-10-23T08:37:14.446Z,99.99
2022-10-23T08:38:14.461Z,99.99
2022-10-23T08:39:14.435Z,99.99
2022-10-23T08:40:14.416Z,99.99
2022-10-23T08:41:14.400Z,99.99
2022-10-23T08:42:14.437Z,99.99
2022-10-23T08:43:14.371Z,99.99
2022-10-23T08:44:14.358Z,99.99
2022-10-23T08:45:14.339Z,99.99
2022-10-23T08:46:14.349Z,99.61
2022-10-23T08:47:14.317Z,99.41
2022-10-23T08:48:14.385Z,98.55
2022-10-23T08:49:14.299Z,98.55
2022-10-23T08:50:14.373Z,97.03
2022-10-23T08:51:14.272Z,97.54
2022-10-23T08:52:14.352Z,97.54
2022-10-23T08:53:14.264Z,97.44
2022-10-23T08:54:14.239Z,97.39
2022-10-23T08:55:14.224Z,97.90
2022-10-23T08:56:14.213Z,97.80
2022-10-23T08:57:14.180Z,97.60
2022-10-23T08:58:14.191Z,97.55
2022-10-23T08:59:17.561Z,97.55
2022-10-23T09:00:14.184Z,97.75
2022-10-23T09:01:14.259Z,97.65
2022-10-23T09:02:14.264Z,97.65
2022-10-23T09:03:14.102Z,97.96
2022-10-23T09:04:14.091Z,98.05
2022-10-23T09:05:14.110Z,97.05
2022-10-23T09:06:14.087Z,96.34
2022-10-23T09:07:14.043Z,96.44
2022-10-23T09:08:14.124Z,96.54
2022-10-23T09:09:14.034Z,95.53
2022-10-23T09:10:14.008Z,95.83
2022-10-23T09:11:14.023Z,96.44
2022-10-23T09:12:13.992Z,96.84
2022-10-23T09:13:13.976Z,97.34
2022-10-23T09:14:13.972Z,96.94
2022-10-23T09:15:13.960Z,96.94
2022-10-23T09:16:13.944Z,97.14
2022-10-23T09:18:13.947Z,96.94
2022-10-23T09:19:13.887Z,96.94
2022-10-23T09:20:13.870Z,96.34
2022-10-23T09:21:13.858Z,96.29
2022-10-23T09:22:13.849Z,95.98
2022-10-23T09:23:13.847Z,95.78
2022-10-23T09:24:13.814Z,96.09
2022-10-23T09:25:13.835Z,96.29
2022-10-23T09:26:13.820Z,96.49
2022-10-23T09:27:13.802Z,96.55
2022-10-23T09:28:13.772Z,96.85
2022-10-23T09:29:13.761Z,97.05
2022-10-23T09:30:13.734Z,97.25
2022-10-23T09:31:13.745Z,97.16
2022-10-23T09:32:13.751Z,97.56
2022-10-23T09:33:13.745Z,96.14
2022-10-23T09:34:13.693Z,96.25
2022-10-23T09:35:13.688Z,96.14
2022-10-23T09:36:13.673Z,95.90
2022-10-23T09:37:13.647Z,96.00
2022-10-23T09:38:13.671Z,96.30
2022-10-23T09:39:13.635Z,96.70
2022-10-23T09:40:13.633Z,96.50
2022-10-23T09:41:13.595Z,96.40
2022-10-23T09:42:13.570Z,96.50
2022-10-23T09:43:13.573Z,96.05
2022-10-23T09:44:13.557Z,95.95
2022-10-23T09:45:13.577Z,95.95
2022-10-23T09:46:13.516Z,96.86
2022-10-23T09:47:13.538Z,97.02
2022-10-23T09:48:13.515Z,97.12
2022-10-23T09:49:13.488Z,97.42
2022-10-23T09:50:13.470Z,97.22
2022-10-23T09:51:13.486Z,97.52
2022-10-23T09:52:13.447Z,95.81
2022-10-23T09:53:13.437Z,92.78
2022-10-23T09:54:13.435Z,93.74
2022-10-23T09:55:13.467Z,92.63
2022-10-23T09:56:13.421Z,90.52
2022-10-23T09:57:13.409Z,89.87
2022-10-23T09:58:13.374Z,88.56
2022-10-23T09:59:13.370Z,89.57
2022-10-23T10:00:13.343Z,87.15
2022-10-23T10:01:13.415Z,86.51
2022-10-23T10:02:13.434Z,84.59
2022-10-23T10:03:13.307Z,85.05
2022-10-23T10:04:13.292Z,85.36
2022-10-23T10:05:13.282Z,84.75
2022-10-23T10:06:13.270Z,84.55
2022-10-23T10:07:13.291Z,84.81
2022-10-23T10:08:13.244Z,85.11
2022-10-23T10:09:13.231Z,85.42
2022-10-23T10:10:13.215Z,86.22
2022-10-23T10:11:13.215Z,84.91
2022-10-23T10:12:13.167Z,85.82
2022-10-23T10:13:15.035Z,84.21
2022-10-23T10:14:13.160Z,85.11
2022-10-23T10:15:13.222Z,84.61
2022-10-23T10:16:13.141Z,84.81
2022-10-23T10:17:13.141Z,84.51
2022-10-23T10:18:13.119Z,84.35
2022-10-23T10:19:13.106Z,84.61
2022-10-23T10:20:13.071Z,82.70
2022-10-23T10:21:13.058Z,83.71
2022-10-23T10:22:13.047Z,83.71
2022-10-23T10:23:13.027Z,83.20
2022-10-23T10:24:13.024Z,83.20
2022-10-23T10:25:13.040Z,84.11
2022-10-23T10:26:12.990Z,84.11
2022-10-23T10:27:12.983Z,84.21
2022-10-23T10:28:12.960Z,84.61
2022-10-23T10:29:12.952Z,84.31
2022-10-23T10:30:12.987Z,84.71
2022-10-23T10:31:12.958Z,84.61
2022-10-23T10:32:12.911Z,84.81
2022-10-23T10:33:12.898Z,84.31
2022-10-23T10:34:12.905Z,84.91
2022-10-23T10:35:12.865Z,84.41
2022-10-23T10:36:12.951Z,85.42
2022-10-23T10:37:12.856Z,84.81
2022-10-23T10:38:12.840Z,84.91
2022-10-23T10:39:12.826Z,85.22
2022-10-23T10:40:12.820Z,85.72
2022-10-23T10:41:12.800Z,85.11
2022-10-23T10:42:12.792Z,85.42
2022-10-23T10:43:12.759Z,85.52
2022-10-23T10:44:12.759Z,86.32
2022-10-23T10:45:12.770Z,87.23
2022-10-23T10:46:12.758Z,86.72
2022-10-23T10:47:14.035Z,86.72
2022-10-23T10:48:12.741Z,87.13
2022-10-23T10:49:12.725Z,86.52
2022-10-23T10:50:12.679Z,86.32
2022-10-23T10:51:12.664Z,86.72
2022-10-23T10:52:12.645Z,85.82
2022-10-23T10:53:12.652Z,85.48
2022-10-23T10:54:12.635Z,85.48
2022-10-23T10:55:12.646Z,85.38
2022-10-23T10:56:12.612Z,85.28
2022-10-23T10:57:12.619Z,85.08
2022-10-23T10:58:12.628Z,85.08
2022-10-23T10:59:12.584Z,85.38
2022-10-23T11:00:12.547Z,85.68
2022-10-23T11:01:12.635Z,85.48
2022-10-23T11:02:12.685Z,84.67
2022-10-23T11:03:12.506Z,84.27
2022-10-23T11:04:12.508Z,84.33
2022-10-23T11:05:12.497Z,83.93
2022-10-23T11:06:12.476Z,83.93
2022-10-23T11:07:12.498Z,84.13
2022-10-23T11:08:12.438Z,83.83
2022-10-23T11:09:20.330Z,84.03
2022-10-23T11:10:13.405Z,84.23
2022-10-23T11:11:12.392Z,83.43
2022-10-23T11:12:12.391Z,83.03
2022-10-23T11:13:12.389Z,82.98
2022-10-23T11:14:12.382Z,83.59
2022-10-23T11:15:12.354Z,82.68
2022-10-23T11:16:12.331Z,83.59
2022-10-23T11:17:12.351Z,83.39
2022-10-23T11:18:12.299Z,82.14
2022-10-23T11:19:14.046Z,82.54
2022-10-23T11:20:12.293Z,81.44
2022-10-23T11:21:12.273Z,81.24
2022-10-23T11:22:12.280Z,80.43
2022-10-23T11:23:12.258Z,80.63
2022-10-23T11:24:12.266Z,78.39
2022-10-23T11:25:12.218Z,79.29
2022-10-23T11:26:14.239Z,78.69
2022-10-23T11:27:12.176Z,77.79
2022-10-23T11:28:12.161Z,78.89
2022-10-23T11:29:12.168Z,78.89
2022-10-23T11:30:12.263Z,77.89
2022-10-23T11:31:12.347Z,78.19
2022-10-23T11:32:12.107Z,78.59
2022-10-23T11:33:12.132Z,77.39
2022-10-23T11:34:12.217Z,76.78
2022-10-23T11:35:12.136Z,77.59
2022-10-23T11:36:12.124Z,77.28
2022-10-23T11:37:12.038Z,76.34
2022-10-23T11:38:12.037Z,75.95
2022-10-23T11:39:12.065Z,76.34
2022-10-23T11:40:12.015Z,75.84
2022-10-23T11:41:12.048Z,75.54
2022-10-23T11:42:11.994Z,76.15
2022-10-23T11:43:11.965Z,74.44
2022-10-23T11:44:11.964Z,75.24
2022-10-23T11:45:12.009Z,75.54
2022-10-23T11:46:11.927Z,75.95
2022-10-23T11:47:11.918Z,76.95
2022-10-23T11:48:11.923Z,74.74
2022-10-23T11:50:12.017Z,75.45
2022-10-23T11:51:11.870Z,74.24
2022-10-23T11:52:11.895Z,73.94
2022-10-23T11:53:13.992Z,75.14
2022-10-23T11:54:11.857Z,74.84
2022-10-23T11:55:11.886Z,75.64
2022-10-23T11:56:11.826Z,75.38
2022-10-23T11:57:11.790Z,74.04
2022-10-23T11:58:11.786Z,72.83
2022-10-23T11:59:11.756Z,74.24
2022-10-23T12:00:11.801Z,74.74
2022-10-23T12:01:11.805Z,73.44
2022-10-23T12:02:11.760Z,74.34
2022-10-23T12:03:11.768Z,74.34
2022-10-23T12:04:11.680Z,74.44
2022-10-23T12:05:11.707Z,74.57
2022-10-23T12:06:11.673Z,74.27
2022-10-23T12:07:11.669Z,73.67
2022-10-23T12:08:11.682Z,74.48
2022-10-23T12:09:11.643Z,73.57
2022-10-23T12:10:11.678Z,73.24
2022-10-23T12:11:11.619Z,73.33
2022-10-23T12:12:11.585Z,74.04
2022-10-23T12:13:11.599Z,74.44
2022-10-23T12:15:11.643Z,73.40
2022-10-23T12:16:11.532Z,73.40
2022-10-23T12:17:11.546Z,72.70
2022-10-23T12:18:11.499Z,73.57
2022-10-23T12:19:11.505Z,73.27
2022-10-23T12:20:11.534Z,72.66
2022-10-23T12:21:11.471Z,71.46
2022-10-23T12:22:11.487Z,72.06
2022-10-23T12:23:11.436Z,71.56
2022-10-23T12:24:11.414Z,72.16
2022-10-23T12:25:11.411Z,71.86
2022-10-23T12:26:11.446Z,72.27
2022-10-23T12:27:11.409Z,72.47
2022-10-23T12:28:11.376Z,71.46
2022-10-23T12:29:11.376Z,71.36
2022-10-23T12:30:11.333Z,72.03
2022-10-23T12:31:11.335Z,72.03
2022-10-23T12:32:11.354Z,71.73
2022-10-23T12:33:11.330Z,72.03
2022-10-23T12:34:11.281Z,72.93
2022-10-23T12:35:11.266Z,72.03
2022-10-23T12:36:11.260Z,72.93
2022-10-23T12:37:11.253Z,71.43
2022-10-23T12:38:11.279Z,71.83
2022-10-23T12:39:11.315Z,71.43
2022-10-23T12:40:11.250Z,72.63
2022-10-23T12:41:11.214Z,72.53
2022-10-23T12:42:11.200Z,72.47
2022-10-23T12:43:11.186Z,72.83
2022-10-23T12:44:11.218Z,72.16
2022-10-23T12:45:11.156Z,72.97
2022-10-23T12:46:14.098Z,73.27
2022-10-23T12:47:12.138Z,72.56
2022-10-23T12:48:11.106Z,72.16
2022-10-23T12:49:11.124Z,73.16
2022-10-23T12:50:11.075Z,72.06
2022-10-23T12:51:11.089Z,72.56
2022-10-23T12:52:11.053Z,72.13
2022-10-23T12:53:11.038Z,72.53
2022-10-23T12:54:11.019Z,72.33
2022-10-23T12:55:11.087Z,72.63
2022-10-23T12:56:10.992Z,72.73
2022-10-23T12:57:10.985Z,72.53
2022-10-23T12:58:10.973Z,72.73
2022-10-23T12:59:11.078Z,72.83
2022-10-23T13:00:11.082Z,71.83
2022-10-23T13:01:11.151Z,72.73
2022-10-23T13:02:11.050Z,72.93
2022-10-23T13:03:10.906Z,73.53
2022-10-23T13:04:10.970Z,73.57
2022-10-23T13:05:10.939Z,73.07
2022-10-23T13:06:10.841Z,72.36
2022-10-23T13:07:10.870Z,72.86
2022-10-23T13:08:10.875Z,72.73
2022-10-23T13:09:10.838Z,72.73
2022-10-23T13:10:10.800Z,72.63
2022-10-23T13:11:10.814Z,72.83
2022-10-23T13:12:10.773Z,73.63
2022-10-23T13:13:10.798Z,72.36